Adel, Georgia
Current Conditions -  °F | °C
As of 8:58 PM on Friday 24 Oct 2014 (Local Time) from KVAD Reporting Station
Clear Clear  
Wind Chill: 58°   Ceiling: Unl
Heat Index: 58°   Visibility: 10mi
Dew Point: 48°   Wind: 1mph
Humidity: 69%   Direction: 50°NE
Pressure: 30"   Gusts: NA
Location:  31.14°N, 83.42°W
Report Text: KVAD 250058Z AUTO 05001KT 10SM CLR 15/09 A3000 RMK AO2 SLP161 T01450089 $
Loading
Personal Weather Stations






























Interactive Weather Map
Tropical Storm Tracking
New forecast layout! Learn more

10-Day Weather Forecast

Advertisements
Track Severe Weather on mobile